Time;durP1;ratioP1;P1;durP2;ratioP2;P2;SDS_P1;SDS_P2;PMS_P1;PMS_P2;Temp;Humidity;BMP_temperature;BMP_pressure;BME280_temperature;BME280_humidity;BME280_pressure;Samples;Min_cycle;Max_cycle;Signal;HPM_P1;HPM_P2
2023/09/16 00:02:15;;;;;;;7.47;5.28;;;;;;;19.79;100.00;98474.72;5091234;28;20646;-57
2023/09/16 00:04:41;;;;;;;5.85;5.07;;;;;;;19.88;100.00;98500.84;5068024;28;20227;-57
2023/09/16 00:07:06;;;;;;;6.15;5.63;;;;;;;20.05;100.00;98512.22;5047818;28;20189;-56
2023/09/16 00:09:33;;;;;;;6.22;5.53;;;;;;;19.87;100.00;98498.38;5048333;28;20742;-56
2023/09/16 00:11:59;;;;;;;7.28;5.80;;;;;;;20.02;100.00;98512.53;5048043;28;20207;-56
2023/09/16 00:14:24;;;;;;;6.10;5.47;;;;;;;20.04;100.00;98495.63;5048347;28;20173;-56
2023/09/16 00:16:51;;;;;;;6.65;5.32;;;;;;;20.02;100.00;98488.88;5048321;28;20308;-56
2023/09/16 00:19:17;;;;;;;7.63;5.53;;;;;;;20.06;100.00;98492.84;5048281;28;20690;-56
2023/09/16 00:21:45;;;;;;;5.82;5.30;;;;;;;20.15;100.00;98512.91;5048310;28;20185;-57
2023/09/16 00:24:11;;;;;;;7.85;5.35;;;;;;;20.15;100.00;98502.38;5048310;28;20547;-56
2023/09/16 00:26:41;;;;;;;8.27;6.13;;;;;;;20.07;100.00;98494.50;5048223;28;20188;-56
2023/09/16 00:29:06;;;;;;;6.30;5.70;;;;;;;20.30;100.00;98506.03;5048264;28;20646;-55
2023/09/16 00:31:33;;;;;;;6.07;5.50;;;;;;;20.16;100.00;98496.19;5048172;28;20264;-56
2023/09/16 00:33:58;;;;;;;10.30;6.10;;;;;;;20.31;100.00;98513.75;5048201;28;20224;-56
2023/09/16 00:36:24;;;;;;;10.95;5.90;;;;;;;20.28;100.00;98515.91;5048454;28;20337;-56
2023/09/16 00:38:50;;;;;;;6.32;5.72;;;;;;;20.09;100.00;98498.63;5027992;28;20836;-56
2023/09/16 00:41:15;;;;;;;7.78;5.60;;;;;;;20.06;100.00;98484.97;5028183;28;20194;-56
2023/09/16 00:43:40;;;;;;;7.95;6.03;;;;;;;20.10;100.00;98508.13;5028191;28;20201;-57
2023/09/16 00:46:06;;;;;;;6.80;6.20;;;;;;;20.11;100.00;98512.41;5028219;28;20181;-56
2023/09/16 00:48:32;;;;;;;6.68;6.18;;;;;;;19.98;100.00;98498.06;5038025;28;20193;-56
2023/09/16 00:50:58;;;;;;;6.88;6.10;;;;;;;20.07;100.00;98505.00;5048021;28;20177;-56
2023/09/16 00:53:26;;;;;;;7.15;6.45;;;;;;;20.20;100.00;98529.00;5047964;28;20679;-56
2023/09/16 00:55:51;;;;;;;7.93;6.65;;;;;;;20.06;100.00;98516.47;5048009;28;20272;-56
2023/09/16 00:58:17;;;;;;;7.15;6.45;;;;;;;19.88;100.00;98505.28;5047696;28;20221;-55
2023/09/16 01:00:45;;;;;;;8.20;6.47;;;;;;;20.00;100.00;98530.25;5047934;28;20346;-56
2023/09/16 01:03:11;;;;;;;9.07;6.57;;;;;;;19.96;100.00;98528.94;5047921;28;20213;-56
2023/09/16 01:05:37;;;;;;;7.07;6.18;;;;;;;19.89;100.00;98539.28;5047825;28;20244;-56
2023/09/16 01:08:03;;;;;;;7.65;5.97;;;;;;;19.86;100.00;98515.94;5047920;28;20246;-56
2023/09/16 01:10:29;;;;;;;11.50;6.63;;;;;;;20.05;100.00;98547.16;5080754;28;20195;-56
2023/09/16 01:12:55;;;;;;;6.80;6.03;;;;;;;19.84;100.00;98511.81;5047465;28;20200;-56
2023/09/16 01:15:27;;;;;;;9.25;6.43;;;;;;;19.84;100.00;98523.16;5047678;28;20235;-56
2023/09/16 01:17:52;;;;;;;9.70;5.97;;;;;;;19.96;100.00;98548.16;5049878;28;20320;-56
2023/09/16 01:20:18;;;;;;;6.70;5.78;;;;;;;19.99;100.00;98550.44;5051587;28;20215;-56
2023/09/16 01:22:45;;;;;;;6.28;5.70;;;;;;;19.80;100.00;98534.97;5051459;28;20189;-56
2023/09/16 01:25:14;;;;;;;8.98;5.88;;;;;;;19.92;100.00;98559.09;5051436;28;20173;-56
2023/09/16 01:27:41;;;;;;;7.00;6.13;;;;;;;19.81;100.00;98548.94;5051341;28;20227;-56
2023/09/16 01:30:07;;;;;;;7.15;6.40;;;;;;;19.66;100.00;98550.50;5051357;28;20657;-56
2023/09/16 01:32:45;;;;;;;10.50;6.47;;;;;;;19.60;100.00;98551.97;5051291;28;20213;-56
2023/09/16 01:35:16;;;;;;;7.20;6.28;;;;;;;19.41;100.00;98533.00;5051327;28;20187;-56
2023/09/16 01:37:45;;;;;;;7.70;6.25;;;;;;;19.54;100.00;98534.22;5051201;28;20212;-56
2023/09/16 01:40:11;;;;;;;6.85;6.15;;;;;;;19.45;100.00;98537.78;5051123;28;20181;-56
2023/09/16 01:42:37;;;;;;;8.07;6.28;;;;;;;19.56;100.00;98549.78;5051090;28;20178;-56
2023/09/16 01:45:04;;;;;;;7.80;5.78;;;;;;;19.68;100.00;98577.41;5092609;28;20180;-56
2023/09/16 01:47:29;;;;;;;6.90;6.30;;;;;;;19.54;100.00;98554.38;5093774;28;20180;-56
2023/09/16 01:49:55;;;;;;;7.95;5.97;;;;;;;19.73;100.00;98585.63;5093722;28;20186;-56
2023/09/16 01:52:20;;;;;;;6.13;5.63;;;;;;;19.73;100.00;98577.75;5093671;28;20578;-56
2023/09/16 01:54:46;;;;;;;7.88;6.97;;;;;;;19.53;100.00;98558.00;5093288;28;20195;-56
2023/09/16 01:57:11;;;;;;;9.23;7.13;;;;;;;19.64;100.00;98571.66;5093463;28;20291;-56
2023/09/16 01:59:37;;;;;;;7.00;6.18;;;;;;;19.77;100.00;98574.66;5093432;28;20245;-57
2023/09/16 02:02:02;;;;;;;7.43;5.95;;;;;;;19.70;100.00;98557.09;5093815;28;20210;-56
2023/09/16 02:04:28;;;;;;;7.97;6.45;;;;;;;20.05;100.00;98598.91;5093388;28;20872;-56
2023/09/16 02:06:54;;;;;;;6.53;5.85;;;;;;;20.03;100.00;98588.56;5093422;28;20271;-56
2023/09/16 02:09:19;;;;;;;7.25;6.05;;;;;;;19.89;100.00;98569.94;5093405;28;20621;-57
2023/09/16 02:11:45;;;;;;;7.85;6.43;;;;;;;20.17;100.00;98587.94;5093153;28;20616;-57
2023/09/16 02:14:12;;;;;;;11.13;6.22;;;;;;;20.00;100.00;98541.56;5093290;28;20175;-57
2023/09/16 02:16:37;;;;;;;7.68;5.75;;;;;;;20.03;99.76;98529.91;5093266;28;20183;-56
2023/09/16 02:19:03;;;;;;;7.60;5.90;;;;;;;20.03;100.00;98522.88;5092909;28;20164;-57
2023/09/16 02:21:29;;;;;;;7.22;6.18;;;;;;;20.02;99.52;98529.13;5093134;28;20262;-57
2023/09/16 02:23:55;;;;;;;7.03;6.15;;;;;;;20.21;99.83;98555.13;5093154;28;20309;-57
2023/09/16 02:26:20;;;;;;;6.72;6.00;;;;;;;20.04;100.00;98542.91;5093095;28;20172;-57
2023/09/16 02:28:45;;;;;;;7.22;5.97;;;;;;;20.02;100.00;98539.63;5092390;28;20514;-56
2023/09/16 02:31:11;;;;;;;6.47;5.93;;;;;;;19.99;100.00;98539.94;5092994;28;20672;-57
2023/09/16 02:33:37;;;;;;;6.68;6.07;;;;;;;19.78;100.00;98523.81;5092976;28;20176;-57
2023/09/16 02:36:04;;;;;;;7.10;6.50;;;;;;;19.94;100.00;98544.84;5092826;28;20176;-57
2023/09/16 02:38:29;;;;;;;9.82;6.35;;;;;;;19.84;100.00;98548.59;5092477;28;20205;-57
2023/09/16 02:40:55;;;;;;;10.10;6.63;;;;;;;19.94;100.00;98570.31;5092453;28;20258;-57
2023/09/16 02:43:20;;;;;;;6.90;6.03;;;;;;;19.80;100.00;98569.09;5092689;28;20175;-57
2023/09/16 02:45:45;;;;;;;6.68;5.78;;;;;;;19.49;100.00;98530.41;5092640;28;20187;-57
2023/09/16 02:48:11;;;;;;;8.07;6.75;;;;;;;19.57;100.00;98564.56;5092621;28;20572;-57
2023/09/16 02:50:37;;;;;;;9.35;6.22;;;;;;;19.49;100.00;98540.91;5092556;28;20264;-57
2023/09/16 02:53:03;;;;;;;8.40;6.50;;;;;;;19.42;100.00;98529.41;5092473;28;20176;-57
2023/09/16 02:55:31;;;;;;;10.05;6.88;;;;;;;19.65;100.00;98572.50;5049581;28;20185;-56
2023/09/16 02:57:57;;;;;;;8.05;7.00;;;;;;;19.56;100.00;98542.75;5049587;28;20219;-57
2023/09/16 03:00:23;;;;;;;9.20;7.03;;;;;;;19.59;100.00;98552.13;5049674;28;20748;-57
2023/09/16 03:02:49;;;;;;;7.13;6.30;;;;;;;19.58;100.00;98550.47;5049602;28;20181;-57
2023/09/16 03:05:15;;;;;;;6.63;6.00;;;;;;;19.59;100.00;98552.13;5049548;28;20276;-57
2023/09/16 03:07:41;;;;;;;7.40;6.20;;;;;;;19.65;100.00;98568.03;5049516;28;20208;-57
2023/09/16 03:10:07;;;;;;;6.43;5.93;;;;;;;19.57;100.00;98549.66;4989971;28;20278;-57
2023/09/16 03:12:32;;;;;;;9.80;5.70;;;;;;;19.64;100.00;98544.59;4990081;28;20234;-56
2023/09/16 03:14:58;;;;;;;6.13;5.55;;;;;;;19.64;100.00;98560.34;4990000;28;20729;-57
2023/09/16 03:17:23;;;;;;;6.72;6.00;;;;;;;19.57;100.00;98567.19;4990204;28;20206;-57
2023/09/16 03:19:50;;;;;;;8.55;5.75;;;;;;;19.46;100.00;98557.78;4990157;28;20183;-57
2023/09/16 03:22:15;;;;;;;6.97;6.28;;;;;;;19.43;100.00;98541.53;4990028;28;20644;-57
2023/09/16 03:24:42;;;;;;;7.43;6.72;;;;;;;19.34;100.00;98524.09;4990095;28;20235;-56
2023/09/16 03:27:07;;;;;;;9.63;6.10;;;;;;;19.36;100.00;98522.97;5020420;28;20197;-57
2023/09/16 03:29:33;;;;;;;7.07;6.35;;;;;;;19.61;100.00;98571.97;5029109;28;20197;-57
2023/09/16 03:31:58;;;;;;;8.10;7.10;;;;;;;19.38;100.00;98530.69;5029094;28;20219;-56
2023/09/16 03:34:23;;;;;;;7.25;6.53;;;;;;;19.48;100.00;98541.88;5029125;28;20231;-57
2023/09/16 03:36:49;;;;;;;6.90;6.20;;;;;;;19.52;100.00;98551.09;5029019;28;20186;-57
2023/09/16 03:39:15;;;;;;;10.57;6.60;;;;;;;19.32;100.00;98529.53;5028934;28;20213;-57
2023/09/16 03:41:40;;;;;;;7.75;5.93;;;;;;;19.42;100.00;98555.66;5074149;28;20284;-57
2023/09/16 03:44:06;;;;;;;7.53;5.97;;;;;;;19.40;100.00;98549.75;5091675;28;20229;-57
2023/09/16 03:46:32;;;;;;;7.38;6.65;;;;;;;19.32;100.00;98540.03;5091519;28;20178;-57
2023/09/16 03:48:57;;;;;;;7.03;6.47;;;;;;;19.43;100.00;98557.28;5091789;28;20176;-57
2023/09/16 03:51:23;;;;;;;8.20;6.57;;;;;;;19.34;100.00;98545.09;5091438;28;20195;-57
2023/09/16 03:53:49;;;;;;;7.40;6.63;;;;;;;19.45;100.00;98539.56;5091422;28;20557;-57
2023/09/16 03:56:14;;;;;;;7.07;6.45;;;;;;;19.52;100.00;98561.59;5091410;28;20176;-57
2023/09/16 03:58:40;;;;;;;11.25;6.13;;;;;;;19.36;100.00;98540.53;5091241;28;20199;-56
2023/09/16 04:01:05;;;;;;;8.25;6.82;;;;;;;19.34;100.00;98552.97;5091021;28;20168;-57
2023/09/16 04:03:31;;;;;;;8.90;6.55;;;;;;;19.24;100.00;98552.28;5091265;28;20175;-56
2023/09/16 04:05:58;;;;;;;7.68;6.07;;;;;;;19.18;100.00;98539.75;5091186;28;20187;-57
2023/09/16 04:08:42;;;;;;;9.25;6.70;;;;;;;19.12;100.00;98538.53;5091180;28;20266;-57
2023/09/16 04:11:07;;;;;;;7.45;6.57;;;;;;;19.06;100.00;98540.97;5090907;28;20233;-56
2023/09/16 04:13:33;;;;;;;6.28;5.78;;;;;;;19.18;100.00;98553.66;5091144;28;20581;-56
2023/09/16 04:15:58;;;;;;;8.40;6.13;;;;;;;19.17;100.00;98557.28;5091117;28;20203;-57
2023/09/16 04:18:24;;;;;;;6.75;6.15;;;;;;;19.06;100.00;98543.59;5091181;28;20290;-56
2023/09/16 04:20:55;;;;;;;8.95;6.53;;;;;;;19.15;100.00;98563.66;5091322;28;20613;-57
2023/09/16 04:23:21;;;;;;;7.28;6.05;;;;;;;19.33;100.00;98588.06;5090964;28;20704;-56
2023/09/16 04:25:46;;;;;;;7.10;6.40;;;;;;;19.19;100.00;98557.13;5090907;28;20168;-56
2023/09/16 04:28:11;;;;;;;7.13;6.47;;;;;;;19.24;100.00;98568.00;5090938;28;20218;-56
2023/09/16 04:30:47;;;;;;;10.32;6.35;;;;;;;19.23;100.00;98569.00;5090842;28;20586;-56
2023/09/16 04:33:13;;;;;;;7.57;6.82;;;;;;;19.40;100.00;98589.09;5047929;28;20625;-56
2023/09/16 04:35:46;;;;;;;7.32;6.68;;;;;;;19.20;100.00;98550.91;5048108;28;20203;-56
2023/09/16 04:38:12;;;;;;;10.77;6.65;;;;;;;19.37;100.00;98576.28;5048059;28;20216;-56
2023/09/16 04:40:40;;;;;;;9.95;6.97;;;;;;;19.36;100.00;98574.63;5048046;28;20181;-56
2023/09/16 04:43:06;;;;;;;15.40;7.28;;;;;;;19.24;100.00;98557.53;5048065;28;20181;-55
2023/09/16 04:45:32;;;;;;;8.05;6.82;;;;;;;19.41;100.00;98561.88;5048045;28;20254;-56
2023/09/16 04:47:57;;;;;;;7.55;6.75;;;;;;;19.55;100.00;98582.28;5048032;28;20267;-56
2023/09/16 04:50:23;;;;;;;7.55;6.85;;;;;;;19.53;100.00;98579.00;5048150;28;20174;-56
2023/09/16 04:52:48;;;;;;;7.03;6.32;;;;;;;19.53;100.00;98558.00;5051005;28;20630;-56
2023/09/16 04:55:14;;;;;;;8.70;6.75;;;;;;;19.72;100.00;98586.63;5051998;28;20263;-56
2023/09/16 04:57:40;;;;;;;7.22;5.97;;;;;;;19.75;100.00;98592.38;5051888;28;20221;-56
2023/09/16 05:00:06;;;;;;;8.30;6.47;;;;;;;19.74;100.00;98582.03;5052075;28;20182;-56
2023/09/16 05:02:33;;;;;;;9.93;6.75;;;;;;;19.53;100.00;98558.81;5052080;28;20193;-56
2023/09/16 05:04:59;;;;;;;10.05;6.55;;;;;;;19.78;100.00;98584.19;5051839;28;20615;-56
2023/09/16 05:07:24;;;;;;;8.15;6.70;;;;;;;19.64;100.00;98555.09;5051978;28;20181;-57
2023/09/16 05:09:50;;;;;;;7.13;6.43;;;;;;;19.80;100.00;98576.97;5059064;28;20187;-57
2023/09/16 05:12:15;;;;;;;11.70;6.97;;;;;;;19.90;100.00;98582.09;5094467;28;20649;-57
2023/09/16 05:14:41;;;;;;;7.93;6.38;;;;;;;20.04;100.00;98589.38;5094593;28;20172;-57
2023/09/16 05:17:06;;;;;;;6.55;6.05;;;;;;;19.99;99.39;98574.06;5094156;28;20196;-57
2023/09/16 05:19:31;;;;;;;6.93;6.22;;;;;;;20.11;99.14;98569.41;5094419;28;20182;-57
2023/09/16 05:21:57;;;;;;;8.23;6.78;;;;;;;20.12;98.73;98584.97;5094363;28;20254;-56
2023/09/16 05:24:22;;;;;;;7.25;6.53;;;;;;;20.11;98.66;98579.91;5094332;28;20616;-56
2023/09/16 05:26:48;;;;;;;12.45;7.15;;;;;;;20.28;98.14;98602.63;5094237;28;20180;-57
2023/09/16 05:29:13;;;;;;;7.18;6.45;;;;;;;20.17;97.28;98574.81;5071368;28;20302;-56
2023/09/16 05:31:38;;;;;;;8.82;6.47;;;;;;;20.31;96.34;98608.38;5071747;28;20673;-60
2023/09/16 05:34:07;;;;;;;8.40;6.32;;;;;;;20.32;96.40;98598.66;5071684;28;20187;-56
2023/09/16 05:36:33;;;;;;;7.05;6.32;;;;;;;20.41;96.00;98606.41;5071353;28;20279;-56
2023/09/16 05:38:58;;;;;;;8.57;7.10;;;;;;;20.49;95.99;98621.38;5071253;28;20307;-57
2023/09/16 05:41:23;;;;;;;7.63;6.22;;;;;;;20.35;95.16;98588.66;5071418;28;20176;-57
2023/09/16 05:43:49;;;;;;;10.27;6.35;;;;;;;20.52;94.57;98607.91;5071403;28;20195;-57
2023/09/16 05:46:15;;;;;;;8.23;6.72;;;;;;;20.56;94.38;98602.16;5071271;28;20191;-56
2023/09/16 05:48:41;;;;;;;11.07;6.35;;;;;;;20.56;93.75;98603.97;5051053;28;20258;-57
2023/09/16 05:51:08;;;;;;;8.82;6.88;;;;;;;20.72;93.74;98625.03;5051126;28;20189;-57
2023/09/16 05:53:35;;;;;;;8.30;6.07;;;;;;;20.62;93.78;98606.78;5051009;28;20204;-57
2023/09/16 05:56:04;;;;;;;6.70;6.10;;;;;;;20.60;93.67;98592.13;5050902;28;20189;-57
2023/09/16 05:58:30;;;;;;;9.27;6.22;;;;;;;20.74;93.94;98610.72;5050793;28;20379;-57
2023/09/16 06:00:57;;;;;;;7.65;6.85;;;;;;;20.86;93.11;98611.25;5050882;28;20192;-57
2023/09/16 06:03:23;;;;;;;6.97;6.30;;;;;;;20.87;91.16;98604.97;5049808;28;20204;-57
2023/09/16 06:05:48;;;;;;;8.13;6.70;;;;;;;21.07;91.70;98637.88;5050879;28;20177;-57
2023/09/16 06:08:14;;;;;;;9.85;7.10;;;;;;;21.03;89.59;98615.53;5050694;28;20189;-57
2023/09/16 06:10:39;;;;;;;7.68;6.45;;;;;;;21.17;90.17;98634.13;5050767;28;20248;-57
2023/09/16 06:13:05;;;;;;;8.30;6.30;;;;;;;21.30;90.12;98654.66;5050581;28;20591;-57
2023/09/16 06:15:30;;;;;;;8.55;6.75;;;;;;;21.13;90.92;98622.28;5050593;28;20736;-57
2023/09/16 06:17:56;;;;;;;10.20;7.55;;;;;;;21.32;92.32;98644.81;5050544;28;20292;-57
2023/09/16 06:20:21;;;;;;;10.15;8.93;;;;;;;21.29;93.73;98624.06;5050419;28;20177;-56
2023/09/16 06:22:46;;;;;;;13.90;9.45;;;;;;;21.43;94.50;98647.06;4991044;28;20293;-56
2023/09/16 06:25:12;;;;;;;12.57;8.77;;;;;;;21.63;94.58;98674.69;4996142;28;20222;-56
2023/09/16 06:27:37;;;;;;;12.23;9.20;;;;;;;21.69;94.40;98684.59;5030470;28;20223;-56
2023/09/16 06:30:03;;;;;;;13.45;9.32;;;;;;;21.71;95.98;98690.50;5030498;28;20173;-56
2023/09/16 06:32:28;;;;;;;15.93;10.68;;;;;;;21.63;96.01;98666.78;5030408;28;20280;-56
2023/09/16 06:34:57;;;;;;;16.00;12.05;;;;;;;21.77;96.17;98669.59;5030426;28;20188;-57
2023/09/16 06:37:22;;;;;;;16.35;11.68;;;;;;;21.91;96.10;98691.78;5030173;28;20663;-57
2023/09/16 06:39:47;;;;;;;21.00;11.98;;;;;;;21.93;96.75;98705.59;5030317;28;20174;-57
2023/09/16 06:42:13;;;;;;;16.15;11.35;;;;;;;21.75;97.38;98683.91;5030161;28;20190;-57
2023/09/16 06:44:38;;;;;;;14.82;9.93;;;;;;;21.98;96.22;98717.28;5030274;28;20182;-57
2023/09/16 06:47:04;;;;;;;12.77;9.27;;;;;;;21.80;95.43;98695.59;5030272;28;20617;-57
2023/09/16 06:49:29;;;;;;;10.70;8.82;;;;;;;21.98;95.57;98724.38;5030078;28;20182;-57
2023/09/16 06:51:54;;;;;;;12.75;8.30;;;;;;;21.93;93.63;98710.88;5030129;28;20260;-57
2023/09/16 06:54:20;;;;;;;12.68;8.75;;;;;;;21.99;93.62;98726.84;5076095;28;20180;-57
2023/09/16 06:56:45;;;;;;;14.73;9.07;;;;;;;21.88;94.64;98739.53;5092487;28;20202;-57
2023/09/16 06:59:11;;;;;;;10.55;8.23;;;;;;;21.77;94.53;98710.91;5092467;28;20287;-57
2023/09/16 07:01:36;;;;;;;14.93;9.05;;;;;;;21.63;95.55;98703.66;5092447;28;20266;-57
2023/09/16 07:04:01;;;;;;;11.88;8.60;;;;;;;21.73;96.39;98712.25;5092205;28;20255;-57
2023/09/16 07:06:27;;;;;;;12.88;8.98;;;;;;;21.75;97.08;98712.91;5092394;28;20202;-57
2023/09/16 07:08:52;;;;;;;13.88;8.73;;;;;;;21.78;99.05;98736.25;5092362;28;20559;-57
2023/09/16 07:11:18;;;;;;;10.95;9.07;;;;;;;21.80;100.00;98736.94;5091898;28;20242;-57
2023/09/16 07:13:44;;;;;;;12.13;9.60;;;;;;;21.80;100.00;98744.84;5092232;28;20270;-57
2023/09/16 07:16:13;;;;;;;10.20;9.07;;;;;;;21.80;100.00;98752.75;5091862;28;20267;-56
2023/09/16 07:18:38;;;;;;;12.43;9.38;;;;;;;21.75;100.00;98752.41;5092046;28;20286;-56
2023/09/16 07:21:08;;;;;;;13.23;9.38;;;;;;;21.81;100.00;98759.66;5092244;28;20199;-56
2023/09/16 07:23:33;;;;;;;15.85;12.90;;;;;;;21.67;100.00;98771.69;5091896;28;20168;-56
2023/09/16 07:25:59;;;;;;;12.48;10.23;;;;;;;21.70;100.00;98766.09;5091933;28;20175;-56
2023/09/16 07:28:26;;;;;;;9.20;8.38;;;;;;;21.39;100.00;98722.94;5091747;28;20362;-57
2023/09/16 07:30:52;;;;;;;13.00;7.72;;;;;;;21.45;100.00;98743.34;5091813;28;20180;-56
2023/09/16 07:33:17;;;;;;;13.30;8.27;;;;;;;21.33;100.00;98747.28;5091762;28;20172;-56
2023/09/16 07:35:43;;;;;;;13.00;8.82;;;;;;;21.38;100.00;98762.59;5091703;28;20292;-56
2023/09/16 07:38:11;;;;;;;10.82;8.07;;;;;;;21.36;100.00;98759.28;5091553;28;20199;-56
2023/09/16 07:40:38;;;;;;;10.23;8.23;;;;;;;21.34;100.00;98748.13;5091607;28;20184;-56
2023/09/16 07:43:08;;;;;;;13.35;8.32;;;;;;;21.48;100.00;98766.72;5091619;28;20168;-57
2023/09/16 07:45:34;;;;;;;12.90;9.38;;;;;;;21.55;100.00;98765.06;5048653;28;20747;-56
2023/09/16 07:48:00;;;;;;;15.27;10.60;;;;;;;21.53;100.00;98747.78;5048836;28;20182;-56
2023/09/16 07:50:25;;;;;;;18.73;10.45;;;;;;;21.73;100.00;98778.09;5048678;28;20726;-56
2023/09/16 07:52:51;;;;;;;14.68;10.90;;;;;;;21.72;100.00;98773.81;5048731;28;20644;-56
2023/09/16 07:55:16;;;;;;;15.80;10.80;;;;;;;21.56;100.00;98750.09;5048734;28;20250;-56
2023/09/16 07:57:42;;;;;;;16.70;10.68;;;;;;;21.79;100.00;98774.81;5048635;28;20681;-56
2023/09/16 08:00:08;;;;;;;16.30;10.43;;;;;;;21.61;100.00;98745.16;5048712;28;20181;-56
2023/09/16 08:02:34;;;;;;;12.73;10.48;;;;;;;21.71;100.00;98769.53;5048611;28;20173;-56
2023/09/16 08:04:59;;;;;;;14.35;10.95;;;;;;;21.49;100.00;98741.19;5048486;28;20189;-56
2023/09/16 08:07:24;;;;;;;12.98;10.82;;;;;;;21.59;100.00;98760.28;5048511;28;20199;-56
2023/09/16 08:09:50;;;;;;;12.13;10.75;;;;;;;21.52;100.00;98769.84;5048550;28;20677;-56
2023/09/16 08:12:24;;;;;;;13.60;10.82;;;;;;;21.58;100.00;98787.63;5048169;28;20221;-56
2023/09/16 08:14:49;;;;;;;10.48;9.40;;;;;;;21.44;100.00;98777.75;5048514;28;20786;-56
2023/09/16 08:17:15;;;;;;;12.07;9.57;;;;;;;21.32;100.00;98750.09;5065978;28;20302;-56
2023/09/16 08:19:41;;;;;;;16.98;10.25;;;;;;;21.44;100.00;98778.56;5070808;28;20195;-56
2023/09/16 08:22:06;;;;;;;16.75;9.52;;;;;;;21.29;100.00;98768.84;5070876;28;20173;-56
2023/09/16 08:24:32;;;;;;;15.95;10.13;;;;;;;21.22;100.00;98762.59;5070835;28;20237;-57
2023/09/16 08:26:57;;;;;;;15.38;10.10;;;;;;;21.22;100.00;98762.59;5070170;28;20569;-57
2023/09/16 08:29:22;;;;;;;10.77;9.55;;;;;;;21.05;100.00;98769.63;5070856;28;20175;-57
2023/09/16 08:31:48;;;;;;;15.48;11.07;;;;;;;21.15;100.00;98774.75;5070817;28;20175;-57
2023/09/16 08:34:13;;;;;;;12.55;9.73;;;;;;;21.05;100.00;98769.63;5070792;28;20255;-57
2023/09/16 08:36:38;;;;;;;17.75;12.32;;;;;;;21.15;100.00;98791.34;5070722;28;20327;-57
2023/09/16 08:39:04;;;;;;;19.40;12.35;;;;;;;21.08;100.00;98786.91;5070607;28;20283;-57
2023/09/16 08:41:49;;;;;;;19.67;12.98;;;;;;;21.05;100.00;98803.03;5070678;28;20179;-61
2023/09/16 08:44:17;;;;;;;13.98;11.50;;;;;;;20.93;100.00;98794.59;5070808;28;20283;-57
2023/09/16 08:46:50;;;;;;;16.33;11.13;;;;;;;20.57;100.00;98763.38;5070655;28;20210;-55
2023/09/16 08:49:18;;;;;;;16.15;10.65;;;;;;;20.54;100.00;98769.78;5070617;28;20183;-56
2023/09/16 08:51:48;;;;;;;15.18;11.65;;;;;;;20.71;100.00;98784.66;5070583;28;20214;-56
2023/09/16 08:54:16;;;;;;;14.25;11.68;;;;;;;20.95;100.00;98815.47;5070448;28;20176;-56
2023/09/16 08:56:43;;;;;;;18.33;12.15;;;;;;;20.89;100.00;98798.53;5070382;28;20180;-57
2023/09/16 08:59:08;;;;;;;16.95;11.95;;;;;;;20.47;100.00;98783.72;5070417;28;20260;-56
2023/09/16 09:01:33;;;;;;;15.73;12.20;;;;;;;20.51;100.00;98783.25;5070630;28;20212;-56
2023/09/16 09:03:59;;;;;;;16.48;13.07;;;;;;;20.53;100.00;98797.06;5070389;28;20260;-56
2023/09/16 09:06:26;;;;;;;12.95;11.65;;;;;;;20.25;100.00;98768.50;5070341;28;20185;-56
2023/09/16 09:08:52;;;;;;;15.25;12.52;;;;;;;20.45;100.00;98799.63;5070287;28;20172;-56
2023/09/16 09:11:19;;;;;;;15.30;13.10;;;;;;;20.36;100.00;98773.47;5074019;28;20230;-56
2023/09/16 09:13:49;;;;;;;15.52;12.55;;;;;;;20.33;100.00;98755.41;5090520;28;20607;-56
2023/09/16 09:16:16;;;;;;;12.80;11.45;;;;;;;20.34;100.00;98760.47;5090061;28;20187;-56
2023/09/16 09:18:44;;;;;;;12.23;10.95;;;;;;;20.38;100.00;98761.00;5090096;28;20195;-56
2023/09/16 09:21:10;;;;;;;10.90;9.80;;;;;;;20.64;100.00;98770.47;5090355;28;20211;-56
2023/09/16 09:23:36;;;;;;;14.95;11.45;;;;;;;20.34;100.00;98742.09;5090677;28;20211;-56
2023/09/16 09:26:01;;;;;;;27.70;19.08;;;;;;;20.44;100.00;98771.72;5090381;28;20198;-56
2023/09/16 09:28:27;;;;;;;20.65;13.90;;;;;;;20.29;100.00;98740.91;5090337;28;20183;-56
2023/09/16 09:30:53;;;;;;;11.38;10.20;;;;;;;20.28;100.00;98749.78;5090239;28;20297;-57
2023/09/16 09:33:20;;;;;;;13.82;10.13;;;;;;;20.25;100.00;98742.22;5090373;28;20660;-56
2023/09/16 09:35:46;;;;;;;13.77;9.55;;;;;;;20.35;100.00;98756.06;5090299;28;20602;-56
2023/09/16 09:38:11;;;;;;;16.55;11.80;;;;;;;20.21;100.00;98733.81;5092019;28;20195;-56
2023/09/16 09:40:37;;;;;;;13.05;10.50;;;;;;;20.25;100.00;98729.91;5094012;28;20171;-56
2023/09/16 09:43:03;;;;;;;12.52;9.82;;;;;;;20.18;100.00;98728.91;5093899;28;20258;-56
2023/09/16 09:45:35;;;;;;;17.23;11.15;;;;;;;20.18;100.00;98734.16;5093810;28;20187;-55
2023/09/16 09:48:00;;;;;;;11.40;10.23;;;;;;;20.25;100.00;98736.94;5093971;28;20182;-55
2023/09/16 09:50:30;;;;;;;12.18;10.88;;;;;;;19.98;100.00;98710.81;5093824;28;20176;-55
2023/09/16 09:52:56;;;;;;;13.70;11.65;;;;;;;20.29;100.00;98749.63;5093686;28;20176;-56
2023/09/16 09:55:28;;;;;;;15.43;12.63;;;;;;;20.04;100.00;98705.78;5093787;28;20202;-57
2023/09/16 09:57:53;;;;;;;14.40;12.20;;;;;;;20.17;100.00;98721.16;5093720;28;20211;-57
2023/09/16 10:00:21;;;;;;;13.35;11.70;;;;;;;20.40;100.00;98732.75;5093365;28;20175;-57
2023/09/16 10:02:48;;;;;;;13.15;11.90;;;;;;;20.37;100.00;98733.06;5093507;28;20259;-55
2023/09/16 10:05:20;;;;;;;13.85;11.95;;;;;;;20.33;100.00;98723.88;5050604;28;20624;-56
2023/09/16 10:07:46;;;;;;;11.82;10.63;;;;;;;20.37;100.00;98717.28;5050687;28;20213;-56
2023/09/16 10:10:24;;;;;;;15.98;12.57;;;;;;;20.41;100.00;98716.81;5050627;28;20279;-56
2023/09/16 10:12:54;;;;;;;12.52;10.80;;;;;;;20.65;100.00;98739.75;5050464;28;20255;-57
2023/09/16 10:15:28;;;;;;;13.60;10.93;;;;;;;20.66;100.00;98730.84;5050517;28;20242;-57
2023/09/16 10:17:55;;;;;;;23.80;9.82;;;;;;;20.85;100.00;98743.72;5050550;28;20283;-57
2023/09/16 10:20:21;;;;;;;9.80;8.90;;;;;;;20.96;100.00;98740.81;5050402;28;20196;-57
2023/09/16 10:22:47;;;;;;;9.50;8.55;;;;;;;21.10;100.00;98734.94;5050392;28;20185;-57
2023/09/16 10:25:12;;;;;;;9.98;8.20;;;;;;;21.17;100.00;98717.50;5050306;28;20212;-57
2023/09/16 10:28:03;;;;;;;10.13;8.75;;;;;;;21.16;100.00;98710.59;5050193;28;20177;-57
2023/09/16 10:30:33;;;;;;;10.18;8.15;;;;;;;21.39;100.00;98740.56;5050269;28;20267;-56
2023/09/16 10:33:00;;;;;;;10.23;9.23;;;;;;;21.26;100.00;98725.25;5050171;28;20188;-57
2023/09/16 10:35:28;;;;;;;8.95;8.05;;;;;;;21.23;100.00;98704.53;5057688;28;20650;-56
2023/09/16 10:37:57;;;;;;;9.38;8.38;;;;;;;21.37;100.00;98724.06;5092480;28;20273;-56
2023/09/16 10:40:23;;;;;;;10.65;8.80;;;;;;;21.48;100.00;98747.44;5092763;28;20187;-56
2023/09/16 10:42:50;;;;;;;11.15;9.40;;;;;;;21.68;100.00;98740.91;5092669;28;20172;-55
2023/09/16 10:45:16;;;;;;;10.52;9.30;;;;;;;21.87;100.00;98735.25;5092631;28;20176;-56
2023/09/16 10:47:41;;;;;;;11.20;10.13;;;;;;;21.99;100.00;98707.56;5092576;28;20179;-56
2023/09/16 10:50:07;;;;;;;13.23;9.10;;;;;;;22.23;100.00;98702.19;5092148;28;20259;-56
2023/09/16 10:52:51;;;;;;;12.32;9.32;;;;;;;22.44;100.00;98700.66;5092781;28;20177;-56
2023/09/16 10:55:34;;;;;;;10.55;8.95;;;;;;;22.86;100.00;98737.22;5092148;28;20175;-56
2023/09/16 10:58:23;;;;;;;10.43;7.68;;;;;;;22.95;100.00;98736.97;5092349;28;20201;-56
2023/09/16 11:00:54;;;;;;;11.52;8.93;;;;;;;22.80;100.00;98687.78;5092357;28;20175;-56
2023/09/16 11:03:21;;;;;;;13.00;9.93;;;;;;;23.02;100.00;98711.53;5092262;28;20179;-56
2023/09/16 11:05:46;;;;;;;12.55;11.32;;;;;;;23.15;100.00;98717.06;5092259;28;20225;-56
2023/09/16 11:08:12;;;;;;;14.43;11.88;;;;;;;23.06;100.00;98712.00;5092169;28;20535;-56
2023/09/16 11:10:38;;;;;;;14.20;12.73;;;;;;;23.22;100.00;98717.19;5092165;28;20187;-56
2023/09/16 11:13:05;;;;;;;14.00;12.57;;;;;;;23.41;100.00;98724.63;5091783;28;20194;-56
2023/09/16 11:15:35;;;;;;;13.98;12.43;;;;;;;23.67;100.00;98710.84;5092124;28;20171;-56
2023/09/16 11:18:07;;;;;;;14.75;12.57;;;;;;;23.85;100.00;98711.31;5092185;28;20200;-57
2023/09/16 11:20:34;;;;;;;15.45;13.00;;;;;;;23.73;100.00;98690.00;5091730;28;20552;-56